Grassy Lake, Canada
Current Conditions -  °F | °C
As of 6:00 PM on Saturday 20 Dec 2014 (Local Time) from CYXH Reporting Station
Scattered Clouds Scattered Clouds  
Wind Chill: 21°   Ceiling: Unl
Heat Index: 27°   Visibility: 15mi
Dew Point: 25°   Wind: 5mph
Humidity: 93%   Direction: 180°S
Pressure: 29.62"   Gusts: NA
Location:  49.83°N, 111.7°W
Report Text: CYXH 210100Z 18004KT 15SM FEW150 SCT280 M03/M04 A2962 RMK AC2CI1 SLP056
Loading
Personal Weather Stations






























Interactive Weather Map New forecast layout! Learn more

10-Day Weather Forecast

Advertisements
Track Severe Weather on mobile